Time,TemperatureF,DewpointF,PressureIn,WindDirection,WindDirectionDegrees,WindSpeedMPH,WindSpeedGustMPH,Humidity,HourlyPrecipIn,Conditions,Clouds,dailyrainin,SoftwareType,DateUTC
2013-09-29 00:06:00,57.4,56.0,30.02,NW,311,3.0,8.0,94,0.00,,,0.32,weatherlink.com 1.10,2013-09-29 05:06:00,
2013-09-29 00:21:00,57.2,56.0,30.03,NNW,329,7.0,10.0,94,0.00,,,0.32,weatherlink.com 1.10,2013-09-29 05:21:00,
2013-09-29 00:36:00,57.1,55.0,30.02,NNW,334,4.0,11.0,94,0.00,,,0.32,weatherlink.com 1.10,2013-09-29 05:36:00,
2013-09-29 00:51:00,56.9,55.0,30.03,NNW,345,3.0,8.0,94,0.00,,,0.32,weatherlink.com 1.10,2013-09-29 05:51:00,
2013-09-29 01:06:00,56.8,55.0,30.03,WNW,293,5.0,12.0,94,0.00,,,0.32,weatherlink.com 1.10,2013-09-29 06:06:00,
2013-09-29 01:21:00,56.8,55.0,30.04,NW,321,4.0,11.0,94,0.00,,,0.32,weatherlink.com 1.10,2013-09-29 06:21:00,
2013-09-29 01:36:00,56.6,55.0,30.04,North,350,7.0,12.0,93,0.00,,,0.32,weatherlink.com 1.10,2013-09-29 06:36:00,
2013-09-29 01:51:00,56.2,54.0,30.04,NNW,339,4.0,9.0,93,0.00,,,0.32,weatherlink.com 1.10,2013-09-29 06:51:00,
2013-09-29 02:06:00,55.8,54.0,30.04,North,5,5.0,10.0,93,0.00,,,0.32,weatherlink.com 1.10,2013-09-29 07:06:00,
2013-09-29 02:21:00,55.2,54.0,30.04,North,349,5.0,9.0,94,0.00,,,0.32,weatherlink.com 1.10,2013-09-29 07:21:00,
2013-09-29 02:36:00,54.8,53.0,30.04,NNW,331,3.0,6.0,94,0.00,,,0.32,weatherlink.com 1.10,2013-09-29 07:36:00,
2013-09-29 02:51:00,54.5,53.0,30.04,NNW,332,2.0,6.0,94,0.00,,,0.32,weatherlink.com 1.10,2013-09-29 07:51:00,
2013-09-29 03:06:00,54.1,53.0,30.04,NNW,343,2.0,5.0,94,0.00,,,0.32,weatherlink.com 1.10,2013-09-29 08:06:00,
2013-09-29 03:21:00,53.7,52.0,30.04,NW,317,2.0,5.0,95,0.00,,,0.32,weatherlink.com 1.10,2013-09-29 08:21:00,
2013-09-29 03:36:00,53.3,52.0,30.04,NW,325,0.0,3.0,95,0.00,,,0.32,weatherlink.com 1.10,2013-09-29 08:36:00,
2013-09-29 03:51:00,52.9,52.0,30.04,NW,324,1.0,3.0,96,0.00,,,0.32,weatherlink.com 1.10,2013-09-29 08:51:00,
2013-09-29 04:06:00,52.6,52.0,30.04,NW,323,3.0,3.0,96,0.00,,,0.32,weatherlink.com 1.10,2013-09-29 09:06:00,
2013-09-29 04:21:00,52.2,51.0,30.04,NW,324,2.0,5.0,96,0.00,,,0.32,weatherlink.com 1.10,2013-09-29 09:21:00,
2013-09-29 04:36:00,51.9,51.0,30.04,NNW,328,1.0,4.0,96,0.00,,,0.32,weatherlink.com 1.10,2013-09-29 09:36:00,
2013-09-29 04:51:00,51.7,51.0,30.04,NW,321,1.0,3.0,97,0.00,,,0.32,weatherlink.com 1.10,2013-09-29 09:51:00,
2013-09-29 05:06:00,51.5,51.0,30.05,NW,316,0.0,4.0,97,0.00,,,0.32,weatherlink.com 1.10,2013-09-29 10:06:00,
2013-09-29 05:21:00,51.3,51.0,30.05,NW,317,0.0,4.0,97,0.00,,,0.32,weatherlink.com 1.10,2013-09-29 10:21:00,
2013-09-29 05:36:00,51.0,50.0,30.05,NW,318,0.0,3.0,97,0.01,,,0.33,weatherlink.com 1.10,2013-09-29 10:36:00,
2013-09-29 05:52:00,50.6,50.0,30.05,NW,318,0.0,4.0,97,0.01,,,0.33,weatherlink.com 1.10,2013-09-29 10:52:00,
2013-09-29 06:06:00,50.3,50.0,30.06,NW,318,0.0,2.0,97,0.01,,,0.33,weatherlink.com 1.10,2013-09-29 11:06:00,
2013-09-29 06:21:00,50.1,49.0,30.06,NW,318,1.0,3.0,97,0.01,,,0.33,weatherlink.com 1.10,2013-09-29 11:21:00,
2013-09-29 06:36:00,50.0,49.0,30.06,NW,323,2.0,3.0,97,0.00,,,0.33,weatherlink.com 1.10,2013-09-29 11:36:00,
2013-09-29 06:51:00,49.8,49.0,30.07,NW,325,1.0,3.0,97,0.00,,,0.33,weatherlink.com 1.10,2013-09-29 11:51:00,
2013-09-29 07:06:00,49.6,49.0,30.07,NW,325,1.0,3.0,97,0.00,,,0.33,weatherlink.com 1.10,2013-09-29 12:06:00,
2013-09-29 07:21:00,49.5,49.0,30.07,NW,325,0.0,3.0,97,0.00,,,0.33,weatherlink.com 1.10,2013-09-29 12:21:00,
2013-09-29 07:36:00,49.6,49.0,30.07,NW,325,2.0,4.0,97,0.00,,,0.33,weatherlink.com 1.10,2013-09-29 12:36:00,
2013-09-29 07:52:00,50.0,50.0,30.08,NW,321,2.0,4.0,98,0.00,,,0.33,weatherlink.com 1.10,2013-09-29 12:52:00,
2013-09-29 08:07:00,50.5,50.0,30.09,NW,320,2.0,4.0,98,0.00,,,0.33,weatherlink.com 1.10,2013-09-29 13:07:00,
2013-09-29 08:22:00,51.3,51.0,30.09,NW,313,3.0,5.0,98,0.00,,,0.33,weatherlink.com 1.10,2013-09-29 13:22:00,
2013-09-29 08:37:00,52.3,52.0,30.09,NNW,333,3.0,6.0,98,0.00,,,0.33,weatherlink.com 1.10,2013-09-29 13:37:00,
2013-09-29 08:52:00,53.2,52.0,30.09,NNW,328,4.0,7.0,97,0.00,,,0.33,weatherlink.com 1.10,2013-09-29 13:52:00,
2013-09-29 09:07:00,54.4,53.0,30.08,NNW,342,3.0,6.0,93,0.00,,,0.33,weatherlink.com 1.10,2013-09-29 14:07:00,
2013-09-29 09:22:00,55.8,53.0,30.09,NW,317,2.0,6.0,90,0.00,,,0.33,weatherlink.com 1.10,2013-09-29 14:22:00,
2013-09-29 09:37:00,57.0,54.0,30.09,NNW,346,3.0,7.0,88,0.00,,,0.33,weatherlink.com 1.10,2013-09-29 14:37:00,
2013-09-29 09:52:00,58.0,54.0,30.09,North,11,3.0,7.0,85,0.00,,,0.33,weatherlink.com 1.10,2013-09-29 14:52:00,
2013-09-29 10:07:00,59.4,54.0,30.09,North,355,2.0,6.0,82,0.00,,,0.33,weatherlink.com 1.10,2013-09-29 15:07:00,
2013-09-29 10:22:00,60.4,54.0,30.09,NNW,347,3.0,6.0,80,0.00,,,0.33,weatherlink.com 1.10,2013-09-29 15:22:00,
2013-09-29 10:37:00,61.1,54.0,30.09,NNW,346,7.0,8.0,76,0.00,,,0.33,weatherlink.com 1.10,2013-09-29 15:37:00,
2013-09-29 10:52:00,62.3,54.0,30.10,NW,325,3.0,6.0,74,0.00,,,0.33,weatherlink.com 1.10,2013-09-29 15:52:00,
2013-09-29 11:07:00,62.9,53.0,30.10,NNW,331,2.0,9.0,70,0.00,,,0.33,weatherlink.com 1.10,2013-09-29 16:07:00,
2013-09-29 11:22:00,64.1,52.0,30.10,NNW,344,3.0,7.0,66,0.00,,,0.33,weatherlink.com 1.10,2013-09-29 16:22:00,
2013-09-29 11:37:00,64.5,51.0,30.09,NNW,327,5.0,8.0,62,0.00,,,0.33,weatherlink.com 1.10,2013-09-29 16:37:00,
2013-09-29 11:52:00,65.0,47.0,30.09,NNW,347,5.0,11.0,53,0.00,,,0.33,weatherlink.com 1.10,2013-09-29 16:52:00,
2013-09-29 12:07:00,65.6,48.0,30.09,North,5,5.0,11.0,54,0.00,,,0.33,weatherlink.com 1.10,2013-09-29 17:07:00,
2013-09-29 12:22:00,65.9,49.0,30.08,NNW,336,5.0,8.0,54,0.00,,,0.00,weatherlink.com 1.10,2013-09-29 17:22:00,
2013-09-29 12:37:00,66.4,50.0,30.08,North,10,2.0,9.0,56,0.00,,,0.00,weatherlink.com 1.10,2013-09-29 17:37:00,
2013-09-29 12:52:00,66.7,45.0,30.07,North,5,4.0,12.0,46,0.00,,,0.00,weatherlink.com 1.10,2013-09-29 17:52:00,
2013-09-29 13:08:00,67.4,48.0,30.07,NE,51,2.0,9.0,50,0.00,,,0.00,weatherlink.com 1.10,2013-09-29 18:08:00,
2013-09-29 13:22:00,67.4,46.0,30.06,NNW,338,0.0,9.0,46,0.00,,,0.00,weatherlink.com 1.10,2013-09-29 18:22:00,
2013-09-29 13:37:00,68.1,47.0,30.05,North,349,5.0,10.0,47,0.00,,,0.00,weatherlink.com 1.10,2013-09-29 18:37:00,
2013-09-29 13:52:00,68.5,46.0,30.04,NNW,346,3.0,9.0,45,0.00,,,0.00,weatherlink.com 1.10,2013-09-29 18:52:00,
2013-09-29 14:07:00,68.6,47.0,30.04,North,9,4.0,11.0,46,0.00,,,0.00,weatherlink.com 1.10,2013-09-29 19:07:00,
2013-09-29 14:22:00,69.4,46.0,30.03,North,360,2.0,9.0,44,0.00,,,0.00,weatherlink.com 1.10,2013-09-29 19:22:00,
2013-09-29 14:37:00,68.8,46.0,30.03,North,5,2.0,9.0,44,0.00,,,0.00,weatherlink.com 1.10,2013-09-29 19:37:00,
2013-09-29 14:52:00,69.6,48.0,30.03,North,5,3.0,14.0,46,0.00,,,0.00,weatherlink.com 1.10,2013-09-29 19:52:00,
2013-09-29 15:07:00,69.7,45.0,30.02,North,5,5.0,12.0,42,0.00,,,0.00,weatherlink.com 1.10,2013-09-29 20:07:00,
2013-09-29 15:22:00,69.5,46.0,30.02,NNW,340,4.0,8.0,43,0.00,,,0.00,weatherlink.com 1.10,2013-09-29 20:22:00,
2013-09-29 15:37:00,69.6,45.0,30.02,NNE,26,0.0,9.0,41,0.00,,,0.00,weatherlink.com 1.10,2013-09-29 20:37:00,
2013-09-29 15:52:00,70.1,45.0,30.02,NE,48,3.0,9.0,41,0.00,,,0.00,weatherlink.com 1.10,2013-09-29 20:52:00,
2013-09-29 16:07:00,70.1,45.0,30.01,North,355,4.0,9.0,40,0.00,,,0.00,weatherlink.com 1.10,2013-09-29 21:07:00,
2013-09-29 16:22:00,70.3,45.0,30.01,NNW,341,6.0,8.0,41,0.00,,,0.00,weatherlink.com 1.10,2013-09-29 21:22:00,
2013-09-29 16:37:00,70.3,45.0,30.01,NE,36,0.0,5.0,41,0.00,,,0.00,weatherlink.com 1.10,2013-09-29 21:37:00,
2013-09-29 16:52:00,70.7,46.0,30.01,NE,55,2.0,4.0,41,0.00,,,0.00,weatherlink.com 1.10,2013-09-29 21:52:00,
2013-09-29 17:07:00,70.5,46.0,30.01,NNE,28,0.0,5.0,41,0.00,,,0.00,weatherlink.com 1.10,2013-09-29 22:07:00,
2013-09-29 17:22:00,70.3,46.0,30.01,NNE,21,1.0,3.0,42,0.00,,,0.00,weatherlink.com 1.10,2013-09-29 22:22:00,
2013-09-29 17:37:00,69.9,47.0,30.01,North,5,0.0,2.0,44,0.00,,,0.00,weatherlink.com 1.10,2013-09-29 22:37:00,
2013-09-29 17:52:00,69.7,50.0,30.01,North,5,0.0,1.0,49,0.00,,,0.00,weatherlink.com 1.10,2013-09-29 22:52:00,
2013-09-29 18:07:00,69.1,48.0,30.01,North,5,1.0,1.0,47,0.00,,,0.00,weatherlink.com 1.10,2013-09-29 23:07:00,
2013-09-29 18:22:00,66.8,49.0,30.00,North,5,0.0,0.0,54,0.00,,,0.00,weatherlink.com 1.10,2013-09-29 23:22:00,
2013-09-29 18:38:00,63.7,49.0,30.00,North,5,0.0,0.0,59,0.00,,,0.00,weatherlink.com 1.10,2013-09-29 23:38:00,
2013-09-29 18:53:00,61.5,49.0,30.00,North,5,0.0,0.0,63,0.00,,,0.00,weatherlink.com 1.10,2013-09-29 23:53:00,
2013-09-29 19:08:00,59.7,49.0,30.00,North,5,0.0,0.0,68,0.00,,,0.00,weatherlink.com 1.10,2013-09-30 00:08:00,
2013-09-29 19:23:00,58.5,48.0,30.00,North,5,0.0,0.0,68,0.00,,,0.00,weatherlink.com 1.10,2013-09-30 00:23:00,
2013-09-29 19:38:00,57.8,47.0,30.00,North,5,0.0,0.0,67,0.00,,,0.00,weatherlink.com 1.10,2013-09-30 00:38:00,
2013-09-29 19:53:00,57.3,46.0,30.00,North,5,0.0,0.0,67,0.00,,,0.00,weatherlink.com 1.10,2013-09-30 00:53:00,
2013-09-29 20:08:00,56.7,45.0,30.01,North,5,0.0,0.0,65,0.00,,,0.00,weatherlink.com 1.10,2013-09-30 01:08:00,
2013-09-29 20:25:00,56.2,44.0,30.01,North,5,0.0,0.0,65,0.00,,,0.00,weatherlink.com 1.10,2013-09-30 01:25:00,
2013-09-29 20:38:00,56.2,44.0,30.01,North,5,0.0,0.0,65,0.00,,,0.00,weatherlink.com 1.10,2013-09-30 01:38:00,
2013-09-29 20:53:00,55.8,44.0,30.00,North,5,0.0,0.0,66,0.00,,,0.00,weatherlink.com 1.10,2013-09-30 01:53:00,
2013-09-29 21:08:00,55.4,45.0,30.01,North,5,0.0,0.0,67,0.00,,,0.00,weatherlink.com 1.10,2013-09-30 02:08:00,
2013-09-29 21:23:00,54.9,45.0,30.00,North,5,0.0,0.0,70,0.00,,,0.00,weatherlink.com 1.10,2013-09-30 02:23:00,
2013-09-29 21:38:00,54.4,47.0,30.00,North,5,0.0,0.0,77,0.00,,,0.00,weatherlink.com 1.10,2013-09-30 02:38:00,
2013-09-29 21:53:00,53.8,45.0,30.01,North,5,0.0,2.0,72,0.00,,,0.00,weatherlink.com 1.10,2013-09-30 02:53:00,
2013-09-29 22:08:00,53.8,46.0,30.01,North,5,0.0,0.0,74,0.00,,,0.00,weatherlink.com 1.10,2013-09-30 03:08:00,
2013-09-29 22:23:00,53.1,45.0,30.01,North,5,0.0,0.0,73,0.00,,,0.00,weatherlink.com 1.10,2013-09-30 03:23:00,
2013-09-29 22:38:00,53.0,44.0,30.01,North,5,0.0,1.0,72,0.00,,,0.00,weatherlink.com 1.10,2013-09-30 03:38:00,
2013-09-29 22:53:00,53.2,44.0,30.01,North,5,0.0,0.0,72,0.00,,,0.00,weatherlink.com 1.10,2013-09-30 03:53:00,
2013-09-29 23:08:00,53.0,45.0,30.01,North,5,0.0,0.0,73,0.00,,,0.00,weatherlink.com 1.10,2013-09-30 04:08:00,
2013-09-29 23:23:00,53.0,45.0,30.00,North,5,0.0,0.0,73,0.00,,,0.00,weatherlink.com 1.10,2013-09-30 04:23:00,
2013-09-29 23:38:00,52.9,45.0,30.00,North,5,0.0,0.0,74,0.00,,,0.00,weatherlink.com 1.10,2013-09-30 04:38:00,
2013-09-29 23:53:00,52.8,45.0,30.00,North,5,0.0,0.0,74,0.00,,,0.00,weatherlink.com 1.10,2013-09-30 04:53:00,